createdAt,value
2023-02-14T00:01:07.998Z,103794.22
2023-02-14T00:03:11.057Z,103788.06
2023-02-14T00:05:12.948Z,103791.50
2023-02-14T00:07:14.632Z,103791.50
2023-02-14T00:09:18.073Z,103787.19
2023-02-14T00:11:20.737Z,103790.66
2023-02-14T00:13:22.327Z,103789.81
2023-02-14T00:15:24.090Z,103787.09
2023-02-14T00:17:25.792Z,103795.22
2023-02-14T00:19:28.756Z,103782.66
2023-02-14T00:21:30.914Z,103795.31
2023-02-14T00:23:32.510Z,103796.19
2023-02-14T00:25:34.374Z,103789.81
2023-02-14T00:27:36.193Z,103786.31
2023-02-14T00:29:37.738Z,103791.66
2023-02-14T00:31:40.587Z,103791.66
2023-02-14T00:33:42.166Z,103795.22
2023-02-14T00:35:45.154Z,103799.63
2023-02-14T00:37:47.332Z,103785.47
2023-02-14T00:39:49.293Z,103795.22
2023-02-14T00:41:50.836Z,103794.34
2023-02-14T00:43:54.124Z,103796.19
2023-02-14T00:45:56.385Z,103805.16
2023-02-14T00:47:58.355Z,103803.34
2023-02-14T00:50:00.179Z,103798.75
2023-02-14T00:52:03.535Z,103797.91
2023-02-14T00:54:05.242Z,103791.66
2023-02-14T00:56:07.186Z,103790.78
2023-02-14T00:58:08.855Z,103790.78
2023-02-14T01:00:11.711Z,103788.06
2023-02-14T01:02:13.482Z,103795.31
2023-02-14T01:04:15.948Z,103795.31
2023-02-14T01:06:17.818Z,103796.19
2023-02-14T01:08:22.824Z,103797.06
2023-02-14T01:10:24.926Z,103796.19
2023-02-14T01:12:27.787Z,103793.47
2023-02-14T01:14:29.439Z,103798.88
2023-02-14T01:16:31.369Z,103794.44
2023-02-14T01:18:33.024Z,103787.19
2023-02-14T01:20:35.308Z,103779.97
2023-02-14T01:22:37.198Z,103780.81
2023-02-14T01:24:40.398Z,103782.53
2023-02-14T01:26:42.024Z,103784.41
2023-02-14T01:28:44.878Z,103772.72
2023-02-14T01:30:46.745Z,103773.59
2023-02-14T01:32:48.446Z,103774.53
2023-02-14T01:34:50.100Z,103770.00
2023-02-14T01:36:51.671Z,103775.41
2023-02-14T01:38:54.744Z,103777.25
2023-02-14T01:40:58.813Z,103766.44
2023-02-14T01:43:01.717Z,103774.41
2023-02-14T01:45:05.934Z,103776.28
2023-02-14T01:47:10.171Z,103780.81
2023-02-14T01:49:15.821Z,103776.38
2023-02-14T01:51:20.142Z,103775.50
2023-02-14T01:53:26.600Z,103777.34
2023-02-14T01:55:32.482Z,103777.34
2023-02-14T01:57:38.730Z,103773.78
2023-02-14T01:59:46.381Z,103773.91
2023-02-14T02:01:50.539Z,103783.84
2023-02-14T02:03:55.632Z,103783.75
2023-02-14T02:06:03.375Z,103781.03
2023-02-14T02:08:04.987Z,103776.59
2023-02-14T02:10:08.609Z,103772.16
2023-02-14T02:12:10.696Z,103768.59
2023-02-14T02:14:18.673Z,103773.91
2023-02-14T02:16:44.402Z,103764.91
2023-02-14T02:19:04.240Z,103764.03
2023-02-14T02:21:33.889Z,103765.78
2023-02-14T02:24:10.376Z,103757.75
2023-02-14T02:26:41.794Z,103769.56
2023-02-14T02:29:21.683Z,103766.97
2023-02-14T02:31:46.176Z,103768.81
2023-02-14T02:34:18.690Z,103766.19
2023-02-14T02:36:48.724Z,103758.94
2023-02-14T02:39:04.890Z,103764.50
2023-02-14T02:41:15.544Z,103770.00
2023-02-14T02:43:31.022Z,103764.59
2023-02-14T02:45:45.815Z,103765.44
2023-02-14T02:48:00.380Z,103759.09
2023-02-14T02:50:11.880Z,103761.00
2023-02-14T02:52:21.249Z,103760.13
2023-02-14T02:54:33.654Z,103755.59
2023-02-14T02:56:43.034Z,103752.03
2023-02-14T02:58:49.042Z,103760.13
2023-02-14T03:00:53.184Z,103757.44
2023-02-14T03:02:58.233Z,103762.00
2023-02-14T03:05:03.669Z,103770.00
2023-02-14T03:07:08.646Z,103779.94
2023-02-14T03:09:13.697Z,103768.16
2023-02-14T03:11:16.097Z,103762.00
2023-02-14T03:13:42.797Z,103761.78
2023-02-14T03:15:54.065Z,103760.03
2023-02-14T03:18:07.358Z,103759.31
2023-02-14T03:20:17.037Z,103763.63
2023-02-14T03:22:27.983Z,103763.72
2023-02-14T03:24:43.914Z,103761.00
2023-02-14T03:26:50.276Z,103758.44
2023-02-14T03:28:58.122Z,103762.00
2023-02-14T03:31:06.687Z,103770.13
2023-02-14T03:33:17.536Z,103772.81
2023-02-14T03:35:26.029Z,103771.97
2023-02-14T03:37:34.856Z,103771.09
2023-02-14T03:39:43.833Z,103772.06
2023-02-14T03:41:51.152Z,103777.38
2023-02-14T03:43:56.544Z,103773.88
2023-02-14T03:46:05.461Z,103778.41
2023-02-14T03:48:11.264Z,103786.44
2023-02-14T03:50:16.942Z,103779.28
2023-02-14T03:52:20.634Z,103774.00
2023-02-14T03:54:26.356Z,103773.88
2023-02-14T03:56:35.089Z,103773.00
2023-02-14T03:58:38.979Z,103778.41
2023-02-14T04:00:42.324Z,103778.53
2023-02-14T04:02:48.281Z,103777.56
2023-02-14T04:04:52.988Z,103778.53
2023-02-14T04:06:55.529Z,103779.41
2023-02-14T04:08:57.480Z,103777.69
2023-02-14T04:11:01.352Z,103780.38
2023-02-14T04:13:04.494Z,103776.81
2023-02-14T04:15:07.287Z,103778.63
2023-02-14T04:17:09.294Z,103779.50
2023-02-14T04:19:10.845Z,103780.47
2023-02-14T04:21:12.448Z,103778.78
2023-02-14T04:23:13.986Z,103785.00
2023-02-14T04:25:16.465Z,103787.72
2023-02-14T04:27:18.042Z,103783.19
2023-02-14T04:29:21.235Z,103786.88
2023-02-14T04:31:23.155Z,103787.84
2023-02-14T04:33:25.883Z,103789.59
2023-02-14T04:35:28.556Z,103781.56
2023-02-14T04:37:30.150Z,103787.84
2023-02-14T04:39:33.962Z,103782.44
2023-02-14T04:41:35.768Z,103781.56
2023-02-14T04:43:37.411Z,103782.53
2023-02-14T04:45:40.368Z,103791.50
2023-02-14T04:47:42.218Z,103785.22
2023-02-14T04:49:43.752Z,103773.56
2023-02-14T04:51:45.588Z,103782.53
2023-02-14T04:53:48.258Z,103785.22
2023-02-14T04:55:50.303Z,103775.41
2023-02-14T04:57:52.030Z,103766.44
2023-02-14T04:59:53.570Z,103773.78
2023-02-14T05:01:56.556Z,103775.50
2023-02-14T05:03:58.222Z,103770.09
2023-02-14T05:05:59.809Z,103770.97
2023-02-14T05:08:01.369Z,103767.41
2023-02-14T05:10:03.799Z,103770.09
2023-02-14T05:12:06.072Z,103768.28
2023-02-14T05:14:07.829Z,103759.38
2023-02-14T05:16:09.745Z,103764.78
2023-02-14T05:18:12.856Z,103763.06
2023-02-14T05:20:14.934Z,103765.66
2023-02-14T05:22:18.489Z,103762.09
2023-02-14T05:24:20.276Z,103768.50
2023-02-14T05:26:22.142Z,103773.91
2023-02-14T05:28:23.936Z,103776.59
2023-02-14T05:30:25.945Z,103773.03
2023-02-14T05:32:27.791Z,103763.19
2023-02-14T05:34:30.786Z,103769.44
2023-02-14T05:36:32.650Z,103764.91
2023-02-14T05:38:34.218Z,103762.44
2023-02-14T05:40:35.877Z,103764.13
2023-02-14T05:42:37.495Z,103762.31
2023-02-14T05:44:39.242Z,103764.13
2023-02-14T05:46:40.828Z,103765.00
2023-02-14T05:48:42.569Z,103759.72
2023-02-14T05:50:45.693Z,103765.97
2023-02-14T05:52:48.117Z,103766.97
2023-02-14T05:54:50.128Z,103772.25
2023-02-14T05:56:52.016Z,103767.84
2023-02-14T05:58:53.536Z,103769.66
2023-02-14T06:00:56.578Z,103768.81
2023-02-14T06:02:58.464Z,103777.78
2023-02-14T06:04:59.960Z,103770.63
2023-02-14T06:07:03.759Z,103767.94
2023-02-14T06:09:05.368Z,103777.88
2023-02-14T06:11:07.230Z,103778.75
2023-02-14T06:13:08.860Z,103775.16
2023-02-14T06:15:10.873Z,103777.88
2023-02-14T06:17:12.701Z,103778.75
2023-02-14T06:19:14.218Z,103785.13
2023-02-14T06:21:15.787Z,103791.38
2023-02-14T06:23:18.819Z,103786.84
2023-02-14T06:25:20.522Z,103786.94
2023-02-14T06:27:22.046Z,103786.09
2023-02-14T06:29:24.917Z,103795.06
2023-02-14T06:31:26.830Z,103805.03
2023-02-14T06:33:28.404Z,103796.91
2023-02-14T06:35:29.983Z,103796.91
2023-02-14T06:37:31.845Z,103796.06
2023-02-14T06:39:34.784Z,103799.63
2023-02-14T06:41:36.434Z,103801.47
2023-02-14T06:43:38.092Z,103790.53
2023-02-14T06:45:41.119Z,103795.06
2023-02-14T06:47:42.947Z,103796.78
2023-02-14T06:49:44.475Z,103791.38
2023-02-14T06:51:46.239Z,103788.69
2023-02-14T06:53:47.964Z,103791.38
2023-02-14T06:55:50.995Z,103788.69
2023-02-14T06:57:52.636Z,103787.72
2023-02-14T06:59:54.281Z,103800.28
2023-02-14T07:01:56.122Z,103788.59
2023-02-14T07:03:57.780Z,103788.47
2023-02-14T07:05:59.459Z,103792.16
2023-02-14T07:08:02.183Z,103797.56
2023-02-14T07:10:05.085Z,103788.47
2023-02-14T07:12:08.478Z,103790.22
2023-02-14T07:14:10.231Z,103792.03
2023-02-14T07:16:11.890Z,103792.03
2023-02-14T07:18:13.575Z,103791.19
2023-02-14T07:20:15.502Z,103793.88
2023-02-14T07:22:17.140Z,103794.75
2023-02-14T07:24:19.039Z,103791.31
2023-02-14T07:26:20.648Z,103786.75
2023-02-14T07:28:23.657Z,103790.22
2023-02-14T07:30:25.366Z,103789.25
2023-02-14T07:32:27.619Z,103792.91
2023-02-14T07:34:29.277Z,103790.22
2023-02-14T07:36:31.171Z,103787.41
2023-02-14T07:38:32.764Z,103788.38
2023-02-14T07:40:34.490Z,103784.72
2023-02-14T07:42:36.463Z,103791.81
2023-02-14T07:44:39.339Z,103785.44
2023-02-14T07:46:41.012Z,103788.06
2023-02-14T07:48:42.796Z,103790.66
2023-02-14T07:50:44.408Z,103781.78
2023-02-14T07:52:46.079Z,103789.69
2023-02-14T07:54:47.928Z,103794.13
2023-02-14T07:56:49.610Z,103789.69
2023-02-14T07:58:51.261Z,103794.88
2023-02-14T08:00:54.913Z,103797.47
2023-02-14T08:02:56.522Z,103803.75
2023-02-14T08:04:58.161Z,103808.16
2023-02-14T08:07:00.043Z,103797.34
2023-02-14T08:09:02.017Z,103805.38
2023-02-14T08:11:03.943Z,103807.97
2023-02-14T08:13:05.723Z,103815.22
2023-02-14T08:15:10.343Z,103812.38
2023-02-14T08:17:13.540Z,103816.94
2023-02-14T08:19:15.152Z,103813.16
2023-02-14T08:21:16.755Z,103813.16
2023-02-14T08:23:19.609Z,103816.63
2023-02-14T08:25:21.149Z,103817.50
2023-02-14T08:27:22.690Z,103823.63
2023-02-14T08:29:24.574Z,103819.22
2023-02-14T08:31:36.571Z,103821.72
2023-02-14T08:33:40.121Z,103813.50
2023-02-14T08:35:42.090Z,103816.22
2023-02-14T08:37:43.735Z,103818.78
2023-02-14T08:39:45.377Z,103816.84
2023-02-14T08:41:47.429Z,103820.41
2023-02-14T08:43:49.636Z,103815.75
2023-02-14T08:45:52.638Z,103817.50
2023-02-14T08:47:54.214Z,103820.00
2023-02-14T08:49:57.444Z,103817.16
2023-02-14T08:51:58.987Z,103819.78
2023-02-14T08:54:00.573Z,103825.19
2023-02-14T08:56:03.357Z,103832.34
2023-02-14T08:58:06.385Z,103826.91
2023-02-14T09:00:09.176Z,103824.97
2023-02-14T09:02:12.545Z,103815.00
2023-02-14T09:04:14.375Z,103813.91
2023-02-14T09:06:17.935Z,103819.22
2023-02-14T09:08:19.703Z,103822.69
2023-02-14T09:10:21.365Z,103823.44
2023-02-14T09:12:23.185Z,103830.47
2023-02-14T09:14:24.846Z,103826.81
2023-02-14T09:16:26.648Z,103825.84
2023-02-14T09:18:28.567Z,103828.53
2023-02-14T09:20:30.105Z,103830.25
2023-02-14T09:22:33.262Z,103826.56
2023-02-14T09:24:36.839Z,103836.44
2023-02-14T09:26:38.409Z,103831.91
2023-02-14T09:28:40.101Z,103831.75
2023-02-14T09:30:41.660Z,103829.94
2023-02-14T09:32:43.435Z,103831.66
2023-02-14T09:34:45.241Z,103829.59
2023-02-14T09:36:46.995Z,103835.66
2023-02-14T09:38:50.216Z,103832.97
2023-02-14T09:40:51.813Z,103830.81
2023-02-14T09:43:01.946Z,103833.28
2023-02-14T09:45:08.808Z,103835.75
2023-02-14T09:47:21.191Z,103827.41
2023-02-14T09:49:31.310Z,103828.38
2023-02-14T09:51:32.998Z,103835.44
2023-02-14T09:53:36.718Z,103830.88
2023-02-14T09:55:47.758Z,103829.78
2023-02-14T09:58:03.796Z,103824.25
2023-02-14T10:00:17.535Z,103831.31
2023-02-14T10:02:35.730Z,103829.34
2023-02-14T10:04:40.985Z,103832.91
2023-02-14T10:06:50.062Z,103840.06
2023-02-14T10:09:02.027Z,103843.50
2023-02-14T10:11:09.060Z,103835.28
2023-02-14T10:13:18.045Z,103828.78
2023-02-14T10:15:24.353Z,103839.38
2023-02-14T10:17:36.590Z,103841.03
2023-02-14T10:19:43.666Z,103834.50
2023-02-14T10:21:51.468Z,103832.44
2023-02-14T10:24:01.844Z,103827.66
2023-02-14T10:26:07.943Z,103828.41
2023-02-14T10:28:15.221Z,103829.16
2023-02-14T10:30:20.304Z,103838.03
2023-02-14T10:32:30.667Z,103823.41
2023-02-14T10:34:39.491Z,103816.03
2023-02-14T10:36:58.393Z,103811.22
2023-02-14T10:39:08.833Z,103820.34
2023-02-14T10:41:24.291Z,103819.25
2023-02-14T10:43:37.270Z,103813.84
2023-02-14T10:45:44.498Z,103816.56
2023-02-14T10:47:54.434Z,103811.00
2023-02-14T10:50:05.119Z,103808.28
2023-02-14T10:52:15.442Z,103817.28
2023-02-14T10:54:21.503Z,103819.03
2023-02-14T10:56:27.986Z,103822.72
2023-02-14T10:58:34.609Z,103819.03
2023-02-14T11:00:40.834Z,103825.19
2023-02-14T11:02:45.200Z,103820.75
2023-02-14T11:04:48.278Z,103816.22
2023-02-14T11:06:50.222Z,103823.34
2023-02-14T11:08:51.877Z,103817.81
2023-02-14T11:10:55.681Z,103812.16
2023-02-14T11:12:59.126Z,103811.19
2023-02-14T11:15:23.050Z,103815.41
2023-02-14T11:17:30.231Z,103813.66
2023-02-14T11:19:34.931Z,103807.28
2023-02-14T11:21:39.534Z,103810.00
2023-02-14T11:23:43.060Z,103806.41
2023-02-14T11:25:51.884Z,103799.38
2023-02-14T11:28:00.847Z,103799.25
2023-02-14T11:30:02.700Z,103802.94
2023-02-14T11:32:10.272Z,103802.94
2023-02-14T11:34:32.465Z,103804.56
2023-02-14T11:36:41.290Z,103806.28
2023-02-14T11:38:46.013Z,103800.84
2023-02-14T11:40:55.617Z,103805.19
2023-02-14T11:43:13.452Z,103800.66
2023-02-14T11:45:32.900Z,103798.34
2023-02-14T11:47:36.344Z,103802.00
2023-02-14T11:49:38.033Z,103804.63
2023-02-14T11:51:44.768Z,103792.78
2023-02-14T11:53:48.881Z,103790.06
2023-02-14T11:55:53.080Z,103784.53
2023-02-14T11:57:56.071Z,103779.13
2023-02-14T12:00:01.925Z,103780.84
2023-02-14T12:02:19.942Z,103774.44
2023-02-14T12:04:26.612Z,103775.44
2023-02-14T12:06:31.553Z,103774.44
2023-02-14T12:08:34.226Z,103765.56
2023-02-14T12:10:36.906Z,103763.59
2023-02-14T12:12:48.180Z,103760.88
2023-02-14T12:14:49.976Z,103761.75
2023-02-14T12:17:01.018Z,103759.91
2023-02-14T12:19:03.768Z,103759.91
2023-02-14T12:21:21.249Z,103760.78
2023-02-14T12:23:29.510Z,103759.91
2023-02-14T12:25:42.295Z,103759.91
2023-02-14T12:27:49.235Z,103760.88
2023-02-14T12:29:54.617Z,103750.91
2023-02-14T12:32:01.638Z,103751.03
2023-02-14T12:34:04.643Z,103748.31
2023-02-14T12:36:14.021Z,103741.91
2023-02-14T12:38:24.502Z,103741.78
2023-02-14T12:40:37.111Z,103731.69
2023-02-14T12:42:54.917Z,103738.59
2023-02-14T12:45:04.696Z,103729.50
2023-02-14T12:47:17.787Z,103724.06
2023-02-14T12:49:50.064Z,103724.69
2023-02-14T12:52:05.702Z,103723.81
2023-02-14T12:54:35.662Z,103716.31
2023-02-14T12:56:50.925Z,103711.13
2023-02-14T12:59:05.192Z,103709.41
2023-02-14T13:01:28.663Z,103703.97
2023-02-14T13:04:03.176Z,103704.75
2023-02-14T13:06:12.545Z,103694.88
2023-02-14T13:08:28.014Z,103696.72
2023-02-14T13:10:50.082Z,103692.06
2023-02-14T13:12:59.883Z,103690.31
2023-02-14T13:15:18.648Z,103682.91
2023-02-14T13:17:28.426Z,103672.06
2023-02-14T13:19:41.029Z,103674.66
2023-02-14T13:21:44.222Z,103673.81
2023-02-14T13:23:48.246Z,103675.44
2023-02-14T13:25:55.476Z,103668.13
2023-02-14T13:27:58.913Z,103665.31
2023-02-14T13:30:05.094Z,103668.88
2023-02-14T13:32:10.746Z,103667.03
2023-02-14T13:34:31.586Z,103664.19
2023-02-14T13:36:37.082Z,103662.34
2023-02-14T13:38:47.204Z,103661.47
2023-02-14T13:40:49.460Z,103659.78
2023-02-14T13:42:54.514Z,103657.19
2023-02-14T13:44:56.066Z,103663.56
2023-02-14T13:46:57.867Z,103659.16
2023-02-14T13:49:01.744Z,103656.56
2023-02-14T13:51:06.375Z,103664.78
2023-02-14T13:53:13.254Z,103658.50
2023-02-14T13:55:18.878Z,103659.50
2023-02-14T13:57:27.941Z,103650.63
2023-02-14T13:59:31.896Z,103655.31
2023-02-14T14:01:36.454Z,103646.56
2023-02-14T14:03:56.355Z,103641.88
2023-02-14T14:06:02.712Z,103635.97
2023-02-14T14:08:33.209Z,103641.38
2023-02-14T14:10:46.550Z,103646.91
2023-02-14T14:12:48.248Z,103643.47
2023-02-14T14:15:10.728Z,103643.34
2023-02-14T14:17:22.199Z,103648.91
2023-02-14T14:19:38.441Z,103655.16
2023-02-14T14:21:42.164Z,103649.97
2023-02-14T14:23:45.247Z,103648.28
2023-02-14T14:25:46.947Z,103650.22
2023-02-14T14:27:49.111Z,103646.66
2023-02-14T14:29:53.595Z,103646.78
2023-02-14T14:31:55.203Z,103648.63
2023-02-14T14:34:01.680Z,103646.91
2023-02-14T14:36:07.793Z,103648.75
2023-02-14T14:38:16.645Z,103648.75
2023-02-14T14:40:26.760Z,103651.59
2023-02-14T14:42:31.214Z,103653.69
2023-02-14T14:44:36.375Z,103643.66
2023-02-14T14:46:38.208Z,103642.06
2023-02-14T14:48:42.837Z,103644.06
2023-02-14T14:50:47.174Z,103642.31
2023-02-14T14:52:52.474Z,103641.56
2023-02-14T14:54:55.254Z,103635.31
2023-02-14T14:57:01.717Z,103633.66
2023-02-14T14:59:17.761Z,103629.00
2023-02-14T15:01:31.352Z,103636.38
2023-02-14T15:03:33.849Z,103632.94
2023-02-14T15:05:38.143Z,103630.47
2023-02-14T15:07:39.638Z,103621.47
2023-02-14T15:09:42.828Z,103616.94
2023-02-14T15:11:46.596Z,103617.13
2023-02-14T15:13:51.410Z,103617.03
2023-02-14T15:15:53.207Z,103620.72
2023-02-14T15:17:56.228Z,103609.16
2023-02-14T15:20:01.982Z,103603.84
2023-02-14T15:22:05.951Z,103601.28
2023-02-14T15:24:13.432Z,103600.50
2023-02-14T15:26:22.207Z,103598.81
2023-02-14T15:28:29.771Z,103597.94
2023-02-14T15:30:34.899Z,103591.91
2023-02-14T15:32:38.183Z,103591.13
2023-02-14T15:34:40.398Z,103598.38
2023-02-14T15:36:44.022Z,103586.81
2023-02-14T15:38:46.132Z,103582.53
2023-02-14T15:40:47.913Z,103587.94
2023-02-14T15:42:51.331Z,103577.22
2023-02-14T15:45:14.491Z,103574.25
2023-02-14T15:47:17.561Z,103567.34
2023-02-14T15:49:23.530Z,103572.78
2023-02-14T15:51:28.656Z,103568.31
2023-02-14T15:53:39.563Z,103563.03
2023-02-14T15:55:43.652Z,103564.03
2023-02-14T15:57:53.310Z,103573.13
2023-02-14T15:59:55.635Z,103568.72
2023-02-14T16:02:00.792Z,103567.84
2023-02-14T16:04:06.930Z,103558.94
2023-02-14T16:06:15.888Z,103557.25
2023-02-14T16:08:27.172Z,103560.81
2023-02-14T16:10:30.568Z,103562.78
2023-02-14T16:12:35.397Z,103558.31
2023-02-14T16:14:37.969Z,103553.91
2023-02-14T16:16:59.657Z,103557.34
2023-02-14T16:19:01.260Z,103555.75
2023-02-14T16:21:17.556Z,103561.16
2023-02-14T16:23:24.017Z,103556.72
2023-02-14T16:25:25.827Z,103552.28
2023-02-14T16:27:27.622Z,103555.00
2023-02-14T16:29:29.167Z,103559.69
2023-02-14T16:31:32.018Z,103566.06
2023-02-14T16:33:35.947Z,103569.75
2023-02-14T16:35:37.988Z,103566.19
2023-02-14T16:37:41.162Z,103562.63
2023-02-14T16:39:42.858Z,103564.56
2023-02-14T16:41:48.054Z,103564.72
2023-02-14T16:43:50.469Z,103562.09
2023-02-14T16:45:52.267Z,103563.06
2023-02-14T16:47:53.844Z,103572.19
2023-02-14T16:49:55.390Z,103571.56
2023-02-14T16:51:57.022Z,103564.66
2023-02-14T16:54:04.114Z,103564.78
2023-02-14T16:56:06.799Z,103564.03
2023-02-14T16:58:08.514Z,103563.28
2023-02-14T17:00:12.668Z,103569.66
2023-02-14T17:02:14.516Z,103564.25
2023-02-14T17:04:16.174Z,103566.22
2023-02-14T17:06:21.767Z,103558.19
2023-02-14T17:08:23.956Z,103557.56
2023-02-14T17:10:27.653Z,103559.31
2023-02-14T17:12:33.317Z,103565.69
2023-02-14T17:14:38.371Z,103564.09
2023-02-14T17:16:40.384Z,103564.09
2023-02-14T17:18:44.501Z,103561.47
2023-02-14T17:20:46.905Z,103555.25
2023-02-14T17:22:48.733Z,103553.50
2023-02-14T17:24:50.778Z,103552.75
2023-02-14T17:26:53.791Z,103551.03
2023-02-14T17:28:55.617Z,103547.56
2023-02-14T17:31:00.110Z,103542.28
2023-02-14T17:33:02.472Z,103542.38
2023-02-14T17:35:04.316Z,103542.38
2023-02-14T17:37:06.222Z,103539.69
2023-02-14T17:39:08.416Z,103537.94
2023-02-14T17:41:15.461Z,103536.09
2023-02-14T17:43:18.651Z,103532.66
2023-02-14T17:45:20.210Z,103531.81
2023-02-14T17:47:21.746Z,103525.53
2023-02-14T17:49:23.461Z,103535.47
2023-02-14T17:51:25.311Z,103532.91
2023-02-14T17:53:27.130Z,103535.63
2023-02-14T17:55:28.870Z,103538.31
2023-02-14T17:57:30.553Z,103539.28
2023-02-14T17:59:34.434Z,103539.28
2023-02-14T18:01:36.307Z,103530.53
2023-02-14T18:03:39.068Z,103543.06
2023-02-14T18:05:40.619Z,103539.53
2023-02-14T18:07:42.476Z,103538.75
2023-02-14T18:09:44.340Z,103535.94
2023-02-14T18:11:45.859Z,103533.34
2023-02-14T18:13:47.569Z,103531.50
2023-02-14T18:15:50.974Z,103525.13
2023-02-14T18:17:52.581Z,103530.66
2023-02-14T18:19:54.073Z,103529.78
2023-02-14T18:21:55.575Z,103536.28
2023-02-14T18:23:57.169Z,103539.97
2023-02-14T18:26:01.628Z,103536.28
2023-02-14T18:28:03.322Z,103539.97
2023-02-14T18:30:06.755Z,103539.22
2023-02-14T18:32:09.756Z,103538.47
2023-02-14T18:34:11.750Z,103532.09
2023-02-14T18:36:15.416Z,103532.22
2023-02-14T18:38:17.016Z,103522.22
2023-02-14T18:40:19.222Z,103517.69
2023-02-14T18:42:21.289Z,103518.69
2023-02-14T18:44:22.935Z,103516.00
2023-02-14T18:46:26.858Z,103516.00
2023-02-14T18:48:30.021Z,103520.53
2023-02-14T18:50:33.228Z,103516.97
2023-02-14T18:52:35.986Z,103520.63
2023-02-14T18:54:40.682Z,103508.94
2023-02-14T18:56:42.214Z,103508.22
2023-02-14T18:58:46.776Z,103511.88
2023-02-14T19:00:48.416Z,103506.56
2023-02-14T19:02:49.969Z,103513.09
2023-02-14T19:04:52.943Z,103497.84
2023-02-14T19:06:54.516Z,103489.09
2023-02-14T19:08:57.492Z,103493.63
2023-02-14T19:10:59.762Z,103491.06
2023-02-14T19:13:01.444Z,103494.97
2023-02-14T19:15:03.167Z,103494.00
2023-02-14T19:17:05.145Z,103498.63
2023-02-14T19:19:06.814Z,103492.50
2023-02-14T19:21:11.599Z,103481.03
2023-02-14T19:23:13.313Z,103481.28
2023-02-14T19:25:14.866Z,103481.47
2023-02-14T19:27:16.687Z,103488.97
2023-02-14T19:29:20.608Z,103485.53
2023-02-14T19:31:22.426Z,103481.31
2023-02-14T19:33:24.074Z,103482.41
2023-02-14T19:35:25.770Z,103480.91
2023-02-14T19:37:28.745Z,103481.13
2023-02-14T19:39:31.039Z,103477.03
2023-02-14T19:41:34.062Z,103478.13
2023-02-14T19:43:35.595Z,103475.50
2023-02-14T19:45:38.440Z,103474.97
2023-02-14T19:47:47.219Z,103477.13
2023-02-14T19:49:49.752Z,103480.94
2023-02-14T19:51:51.461Z,103483.97
2023-02-14T19:53:56.847Z,103471.44
2023-02-14T19:55:58.514Z,103479.75
2023-02-14T19:58:00.610Z,103474.59
2023-02-14T20:00:02.556Z,103481.91
2023-02-14T20:02:04.226Z,103477.69
2023-02-14T20:04:08.012Z,103482.25
2023-02-14T20:06:09.838Z,103485.06
2023-02-14T20:08:11.463Z,103477.06
2023-02-14T20:10:15.510Z,103479.03
2023-02-14T20:12:17.360Z,103480.84
2023-02-14T20:14:20.984Z,103475.53
2023-02-14T20:16:23.664Z,103480.94
2023-02-14T20:18:25.421Z,103476.53
2023-02-14T20:20:27.204Z,103471.16
2023-02-14T20:22:29.039Z,103472.09
2023-02-14T20:24:32.795Z,103467.66
2023-02-14T20:26:36.975Z,103467.66
2023-02-14T20:28:38.470Z,103465.09
2023-02-14T20:30:40.728Z,103459.69
2023-02-14T20:32:42.261Z,103462.50
2023-02-14T20:34:43.909Z,103464.22
2023-02-14T20:36:47.100Z,103460.66
2023-02-14T20:38:48.648Z,103457.97
2023-02-14T20:40:50.242Z,103456.22
2023-02-14T20:42:53.529Z,103456.34
2023-02-14T20:44:55.182Z,103455.59
2023-02-14T20:46:57.361Z,103452.88
2023-02-14T20:48:59.006Z,103452.88
2023-02-14T20:51:09.158Z,103448.44
2023-02-14T20:53:10.828Z,103443.19
2023-02-14T20:55:12.406Z,103445.00
2023-02-14T20:57:13.981Z,103444.13
2023-02-14T20:59:17.759Z,103438.75
2023-02-14T21:01:21.751Z,103441.44
2023-02-14T21:03:23.847Z,103430.78
2023-02-14T21:05:25.561Z,103436.91
2023-02-14T21:07:27.065Z,103430.66
2023-02-14T21:09:28.682Z,103429.03
2023-02-14T21:11:30.327Z,103431.72
2023-02-14T21:13:32.421Z,103421.03
2023-02-14T21:15:35.811Z,103422.13
2023-02-14T21:17:37.735Z,103424.91
2023-02-14T21:19:39.647Z,103420.72
2023-02-14T21:21:41.367Z,103419.00
2023-02-14T21:23:43.438Z,103413.72
2023-02-14T21:25:45.174Z,103412.19
2023-02-14T21:27:47.020Z,103415.84
2023-02-14T21:29:48.589Z,103414.38
2023-02-14T21:31:51.942Z,103406.38
2023-02-14T21:33:55.377Z,103405.72
2023-02-14T21:35:57.230Z,103402.25
2023-02-14T21:37:58.786Z,103401.63
2023-02-14T21:40:00.386Z,103408.97
2023-02-14T21:42:02.302Z,103411.88
2023-02-14T21:44:05.065Z,103405.84
2023-02-14T21:46:08.372Z,103409.59
2023-02-14T21:48:11.566Z,103407.13
2023-02-14T21:50:13.098Z,103405.50
2023-02-14T21:52:14.862Z,103409.28
2023-02-14T21:54:17.101Z,103409.47
2023-02-14T21:56:20.080Z,103408.00
2023-02-14T21:58:21.965Z,103408.97
2023-02-14T22:00:23.782Z,103410.00
2023-02-14T22:02:25.664Z,103408.41
2023-02-14T22:04:28.663Z,103408.53
2023-02-14T22:06:30.376Z,103414.09
2023-02-14T22:08:32.861Z,103404.50
2023-02-14T22:10:34.522Z,103403.75
2023-02-14T22:12:36.181Z,103397.72
2023-02-14T22:14:37.738Z,103397.81
2023-02-14T22:16:39.973Z,103402.53
2023-02-14T22:18:42.409Z,103402.66
2023-02-14T22:20:45.417Z,103397.47
2023-02-14T22:22:47.218Z,103394.97
2023-02-14T22:24:48.901Z,103393.34
2023-02-14T22:26:50.519Z,103393.47
2023-02-14T22:28:54.400Z,103392.78
2023-02-14T22:30:59.861Z,103392.06
2023-02-14T22:33:03.073Z,103389.56
2023-02-14T22:35:04.992Z,103386.09
2023-02-14T22:37:09.678Z,103386.31
2023-02-14T22:39:15.570Z,103383.75
2023-02-14T22:41:20.893Z,103389.44
2023-02-14T22:43:23.365Z,103385.94
2023-02-14T22:45:25.056Z,103384.44
2023-02-14T22:47:29.094Z,103385.41
2023-02-14T22:49:30.791Z,103384.75
2023-02-14T22:51:34.262Z,103385.81
2023-02-14T22:53:38.203Z,103389.59
2023-02-14T22:55:39.810Z,103388.91
2023-02-14T22:57:41.366Z,103386.44
2023-02-14T22:59:43.002Z,103380.41
2023-02-14T23:01:45.611Z,103383.28
2023-02-14T23:03:48.620Z,103385.31
2023-02-14T23:05:56.408Z,103379.16
2023-02-14T23:07:58.008Z,103382.16
2023-02-14T23:10:00.953Z,103378.72
2023-02-14T23:12:02.602Z,103377.94
2023-02-14T23:14:05.510Z,103375.34
2023-02-14T23:16:09.686Z,103377.25
2023-02-14T23:18:13.040Z,103367.56
2023-02-14T23:20:14.665Z,103366.81
2023-02-14T23:22:18.653Z,103372.50
2023-02-14T23:24:21.795Z,103369.03
2023-02-14T23:26:24.909Z,103369.22
2023-02-14T23:28:26.981Z,103360.50
2023-02-14T23:30:28.804Z,103362.31
2023-02-14T23:32:30.414Z,103358.97
2023-02-14T23:34:33.782Z,103360.03
2023-02-14T23:36:35.432Z,103358.28
2023-02-14T23:38:37.017Z,103353.13
2023-02-14T23:40:38.680Z,103350.63
2023-02-14T23:42:41.962Z,103354.47
2023-02-14T23:44:44.750Z,103352.75